Time;durP1;ratioP1;P1;durP2;ratioP2;P2;SDS_P1;SDS_P2;PMS_P1;PMS_P2;Temp;Humidity;BMP_temperature;BMP_pressure;BME280_temperature;BME280_humidity;BME280_pressure;Samples;Min_cycle;Max_cycle;Signal;HPM_P1;HPM_P2
2024/02/27 00:00:14;;;;;;;;;;;6.50;99.90;;;;;;5085986;28;20063;-92
2024/02/27 00:02:40;;;;;;;;;;;6.50;99.90;;;;;;5097926;28;19988;-91
2024/02/27 00:05:06;;;;;;;;;;;6.50;99.90;;;;;;5085571;28;19997;-90
2024/02/27 00:07:31;;;;;;;;;;;6.50;99.90;;;;;;5088221;28;20108;-88
2024/02/27 00:09:58;;;;;;;;;;;6.40;99.90;;;;;;5082654;28;20068;-88
2024/02/27 00:12:25;;;;;;;;;;;6.40;99.90;;;;;;5084098;28;20000;-90
2024/02/27 00:14:52;;;;;;;;;;;6.40;99.90;;;;;;5076707;28;19992;-89
2024/02/27 00:17:20;;;;;;;;;;;6.40;99.90;;;;;;5075448;28;20084;-90
2024/02/27 00:19:45;;;;;;;;;;;6.40;99.90;;;;;;5088074;28;19989;-89
2024/02/27 00:22:11;;;;;;;;;;;6.50;99.90;;;;;;5078861;28;19999;-88
2024/02/27 00:24:36;;;;;;;;;;;6.50;99.90;;;;;;5082928;28;20016;-90
2024/02/27 00:27:02;;;;;;;;;;;6.50;99.90;;;;;;5086972;28;19989;-90
2024/02/27 00:29:28;;;;;;;;;;;6.50;99.90;;;;;;5086987;28;20011;-89
2024/02/27 00:31:53;;;;;;;;;;;6.50;99.90;;;;;;5082675;28;20039;-89
2024/02/27 00:34:19;;;;;;;;;;;6.60;99.90;;;;;;5082793;28;19985;-90
2024/02/27 00:36:44;;;;;;;;;;;6.60;99.90;;;;;;5083899;28;19993;-91
2024/02/27 00:39:10;;;;;;;;;;;6.60;99.90;;;;;;5073096;28;19993;-89
2024/02/27 00:41:40;;;;;;;;;;;6.60;99.90;;;;;;5080466;28;20044;-91
2024/02/27 00:44:07;;;;;;;;;;;6.60;99.90;;;;;;5086617;28;19992;-92
2024/02/27 00:46:38;;;;;;;;;;;6.50;99.90;;;;;;5085344;28;19999;-91
2024/02/27 00:49:04;;;;;;;;;;;6.50;99.90;;;;;;5089453;28;20487;-91
2024/02/27 00:51:29;;;;;;;;;;;6.50;99.90;;;;;;5089881;28;20052;-91
2024/02/27 00:53:55;;;;;;;;;;;6.50;99.90;;;;;;5086129;28;19992;-90
2024/02/27 00:56:21;;;;;;;;;;;6.50;99.90;;;;;;5087803;28;19993;-91
2024/02/27 00:58:46;;;;;;;;;;;6.40;99.90;;;;;;5085064;28;20052;-91
2024/02/27 01:01:12;;;;;;;;;;;6.40;99.90;;;;;;5087806;28;20091;-91
2024/02/27 01:03:37;;;;;;;;;;;6.50;99.90;;;;;;5081006;28;19989;-89
2024/02/27 01:06:04;;;;;;;;;;;6.50;99.90;;;;;;5081364;28;19997;-89
2024/02/27 01:08:29;;;;;;;;;;;6.50;99.90;;;;;;5075700;28;19997;-91
2024/02/27 01:10:55;;;;;;;;;;;6.50;99.90;;;;;;5083372;28;20017;-91
2024/02/27 01:13:20;;;;;;;;;;;6.50;99.90;;;;;;5084498;28;20000;-90
2024/02/27 01:15:46;;;;;;;;;;;6.50;99.90;;;;;;5075355;28;20449;-91
2024/02/27 01:18:11;;;;;;;;;;;6.50;99.90;;;;;;5090119;28;19988;-90
2024/02/27 01:20:37;;;;;;;;;;;6.60;99.90;;;;;;5075779;28;20106;-87
2024/02/27 01:23:03;;;;;;;;;;;6.60;99.90;;;;;;5075493;28;19993;-87
2024/02/27 01:25:28;;;;;;;;;;;6.60;99.90;;;;;;5070705;28;19990;-87
2024/02/27 01:27:54;;;;;;;;;;;6.50;99.90;;;;;;5073434;28;20094;-86
2024/02/27 01:30:19;;;;;;;;;;;6.50;99.90;;;;;;5077149;28;20150;-87
2024/02/27 01:32:45;;;;;;;;;;;6.50;99.90;;;;;;5080347;28;20099;-86
2024/02/27 01:35:11;;;;;;;;;;;6.50;99.90;;;;;;5082168;28;20130;-86
2024/02/27 01:37:36;;;;;;;;;;;6.40;99.90;;;;;;5080186;28;20456;-87
2024/02/27 01:40:04;;;;;;;;;;;6.40;99.90;;;;;;5081466;28;20001;-87
2024/02/27 01:42:29;;;;;;;;;;;6.20;99.90;;;;;;5081233;28;20067;-87
2024/02/27 01:44:55;;;;;;;;;;;6.20;99.90;;;;;;5080125;28;20059;-87
2024/02/27 01:47:22;;;;;;;;;;;6.10;99.90;;;;;;5076742;28;19995;-87
2024/02/27 01:49:48;;;;;;;;;;;6.10;99.90;;;;;;5080912;28;20028;-87
2024/02/27 01:52:14;;;;;;;;;;;6.30;99.90;;;;;;5078221;28;20439;-86
2024/02/27 01:54:41;;;;;;;;;;;6.40;99.90;;;;;;5082447;28;20083;-87
2024/02/27 01:57:07;;;;;;;;;;;6.40;99.90;;;;;;5080585;28;19993;-87
2024/02/27 01:59:33;;;;;;;;;;;6.40;99.90;;;;;;5080951;28;20029;-87
2024/02/27 02:02:00;;;;;;;;;;;6.30;99.90;;;;;;5072077;28;20383;-90
2024/02/27 02:04:26;;;;;;;;;;;6.30;99.90;;;;;;5082167;28;20552;-89
2024/02/27 02:06:52;;;;;;;;;;;6.30;99.90;;;;;;5091628;28;20459;-89
2024/02/27 02:09:17;;;;;;;;;;;6.30;99.90;;;;;;5083364;28;20038;-89
2024/02/27 02:11:44;;;;;;;;;;;6.20;99.90;;;;;;5086231;28;20448;-90
2024/02/27 02:14:10;;;;;;;;;;;6.30;99.90;;;;;;5078448;28;20655;-91
2024/02/27 02:16:36;;;;;;;;;;;6.30;99.90;;;;;;5082584;28;19992;-88
2024/02/27 02:19:01;;;;;;;;;;;6.30;99.90;;;;;;5092942;28;19996;-90
2024/02/27 02:21:27;;;;;;;;;;;6.40;99.90;;;;;;5074278;28;19996;-89
2024/02/27 02:23:55;;;;;;;;;;;6.30;99.90;;;;;;5084046;28;20826;-90
2024/02/27 02:26:21;;;;;;;;;;;6.40;99.90;;;;;;5079826;28;19992;-89
2024/02/27 02:28:47;;;;;;;;;;;6.40;99.90;;;;;;5075625;28;19996;-91
2024/02/27 02:31:13;;;;;;;;;;;6.40;99.90;;;;;;5080271;28;20031;-88
2024/02/27 02:33:40;;;;;;;;;;;6.40;99.90;;;;;;5079313;28;20456;-89
2024/02/27 02:36:06;;;;;;;;;;;6.40;99.90;;;;;;5077666;28;19997;-89
2024/02/27 02:38:31;;;;;;;;;;;6.40;99.90;;;;;;5080454;28;19996;-90
2024/02/27 02:40:57;;;;;;;;;;;6.40;99.90;;;;;;5075658;28;20405;-91
2024/02/27 02:43:22;;;;;;;;;;;6.40;99.90;;;;;;5088075;28;19993;-90
2024/02/27 02:45:48;;;;;;;;;;;6.40;99.90;;;;;;5080843;28;20079;-91
2024/02/27 02:48:13;;;;;;;;;;;6.30;99.90;;;;;;5086334;28;20023;-90
2024/02/27 02:50:39;;;;;;;;;;;6.20;99.90;;;;;;5080709;28;20005;-91
2024/02/27 02:53:05;;;;;;;;;;;6.10;99.90;;;;;;5081521;28;19988;-90
2024/02/27 02:55:30;;;;;;;;;;;6.10;99.90;;;;;;5083636;28;19989;-91
2024/02/27 02:57:56;;;;;;;;;;;6.10;99.90;;;;;;5085031;28;20031;-90
2024/02/27 03:00:21;;;;;;;;;;;6.10;99.90;;;;;;5087820;28;20039;-92
2024/02/27 03:02:47;;;;;;;;;;;6.20;99.90;;;;;;5084004;28;19997;-89
2024/02/27 03:05:13;;;;;;;;;;;6.10;99.90;;;;;;5076158;28;20850;-89
2024/02/27 03:07:39;;;;;;;;;;;6.10;99.90;;;;;;5082145;28;20364;-90
2024/02/27 03:10:05;;;;;;;;;;;6.00;99.90;;;;;;5080330;28;20012;-91
2024/02/27 03:12:30;;;;;;;;;;;5.90;99.90;;;;;;5078929;28;19989;-93
2024/02/27 03:14:56;;;;;;;;;;;6.00;99.90;;;;;;5070591;28;20438;-89
2024/02/27 03:17:22;;;;;;;;;;;6.10;99.90;;;;;;5082639;28;20053;-91
2024/02/27 03:19:47;;;;;;;;;;;6.10;99.90;;;;;;5087623;28;20035;-90
2024/02/27 03:22:13;;;;;;;;;;;6.10;99.90;;;;;;5076452;28;19993;-91
2024/02/27 03:24:39;;;;;;;;;;;6.20;99.90;;;;;;5081071;28;20097;-90
2024/02/27 03:27:04;;;;;;;;;;;6.10;99.90;;;;;;5085779;28;19993;-90
2024/02/27 03:29:30;;;;;;;;;;;6.20;99.90;;;;;;5079211;28;20550;-90
2024/02/27 03:31:56;;;;;;;;;;;6.20;99.90;;;;;;5076108;28;19992;-91
2024/02/27 03:34:24;;;;;;;;;;;6.20;99.90;;;;;;5079949;28;20149;-88
2024/02/27 03:36:49;;;;;;;;;;;6.20;99.90;;;;;;5082773;28;19993;-88
2024/02/27 03:39:15;;;;;;;;;;;6.20;99.90;;;;;;5083431;28;19999;-89
2024/02/27 03:41:41;;;;;;;;;;;6.20;99.90;;;;;;5090048;28;19993;-90
2024/02/27 03:44:06;;;;;;;;;;;6.20;99.90;;;;;;5082014;28;20498;-88
2024/02/27 03:46:32;;;;;;;;;;;6.20;99.90;;;;;;5081566;28;19988;-88
2024/02/27 03:48:57;;;;;;;;;;;6.30;99.90;;;;;;5077598;28;19997;-87
2024/02/27 03:51:23;;;;;;;;;;;6.30;99.90;;;;;;5094244;28;20009;-87
2024/02/27 03:53:48;;;;;;;;;;;6.30;99.90;;;;;;5091172;28;19992;-87
2024/02/27 03:56:14;;;;;;;;;;;6.30;99.90;;;;;;5080241;28;20748;-88
2024/02/27 03:58:39;;;;;;;;;;;6.30;99.90;;;;;;5089974;28;20016;-88
2024/02/27 04:01:05;;;;;;;;;;;6.20;99.90;;;;;;5080696;28;19997;-87
2024/02/27 04:03:30;;;;;;;;;;;6.20;99.90;;;;;;5083329;28;20419;-87
2024/02/27 04:05:56;;;;;;;;;;;6.20;99.90;;;;;;5081321;28;19989;-87
2024/02/27 04:08:22;;;;;;;;;;;6.20;99.90;;;;;;5088225;28;20046;-86
2024/02/27 04:10:47;;;;;;;;;;;6.20;99.90;;;;;;5081284;28;20019;-87
2024/02/27 04:13:13;;;;;;;;;;;6.20;99.90;;;;;;5086967;28;19999;-88
2024/02/27 04:15:39;;;;;;;;;;;6.30;99.90;;;;;;5080817;28;19996;-88
2024/02/27 04:18:05;;;;;;;;;;;6.30;99.90;;;;;;5081994;28;19993;-88
2024/02/27 04:20:31;;;;;;;;;;;6.30;99.90;;;;;;5088154;28;19988;-87
2024/02/27 04:22:56;;;;;;;;;;;6.30;99.90;;;;;;5081659;28;20480;-88
2024/02/27 04:25:22;;;;;;;;;;;6.30;99.90;;;;;;5084677;28;20027;-87
2024/02/27 04:27:48;;;;;;;;;;;6.30;99.90;;;;;;5078359;28;20030;-85
2024/02/27 04:30:13;;;;;;;;;;;6.30;99.90;;;;;;5087271;28;20065;-86
2024/02/27 04:32:39;;;;;;;;;;;6.30;99.90;;;;;;5087182;28;20443;-88
2024/02/27 04:35:05;;;;;;;;;;;6.30;99.90;;;;;;5079830;28;20412;-91
2024/02/27 04:37:31;;;;;;;;;;;6.40;99.90;;;;;;5091530;28;19992;-94
2024/02/27 04:39:57;;;;;;;;;;;6.30;99.90;;;;;;5092243;28;20860;-93
2024/02/27 04:42:22;;;;;;;;;;;6.30;99.90;;;;;;5083467;28;20037;-91
2024/02/27 04:44:48;;;;;;;;;;;6.30;99.90;;;;;;5085495;28;20478;-89
2024/02/27 04:47:13;;;;;;;;;;;6.30;99.90;;;;;;5079113;28;19989;-90
2024/02/27 04:49:39;;;;;;;;;;;6.30;99.90;;;;;;5084575;28;20013;-88
2024/02/27 04:52:05;;;;;;;;;;;6.30;99.90;;;;;;5087642;28;20607;-91
2024/02/27 04:54:30;;;;;;;;;;;6.30;99.90;;;;;;5082961;28;19993;-91
2024/02/27 04:56:56;;;;;;;;;;;6.40;99.90;;;;;;5086803;28;20000;-91
2024/02/27 04:59:21;;;;;;;;;;;6.40;99.90;;;;;;5080808;28;20025;-89
2024/02/27 05:01:47;;;;;;;;;;;6.30;99.90;;;;;;5081081;28;20087;-89
2024/02/27 05:04:13;;;;;;;;;;;6.30;99.90;;;;;;5092443;28;20709;-89
2024/02/27 05:06:39;;;;;;;;;;;6.30;99.90;;;;;;5085928;28;19988;-89
2024/02/27 05:09:05;;;;;;;;;;;6.30;99.90;;;;;;5086963;28;20549;-89
2024/02/27 05:11:31;;;;;;;;;;;6.40;99.90;;;;;;5079513;28;20100;-89
2024/02/27 05:13:56;;;;;;;;;;;6.40;99.90;;;;;;5082208;28;20484;-89
2024/02/27 05:16:22;;;;;;;;;;;6.40;99.90;;;;;;5088123;28;19989;-89
2024/02/27 05:18:47;;;;;;;;;;;6.40;99.90;;;;;;5078610;28;19999;-91
2024/02/27 05:21:13;;;;;;;;;;;6.40;99.90;;;;;;5078992;28;19989;-89
2024/02/27 05:23:38;;;;;;;;;;;6.30;99.90;;;;;;5080977;28;20031;-88
2024/02/27 05:26:04;;;;;;;;;;;6.30;99.90;;;;;;5080919;28;19996;-88
2024/02/27 05:28:29;;;;;;;;;;;6.20;99.90;;;;;;5087545;28;19989;-90
2024/02/27 05:30:55;;;;;;;;;;;6.20;99.90;;;;;;5073969;28;20056;-87
2024/02/27 05:33:21;;;;;;;;;;;6.10;99.90;;;;;;5082496;28;19989;-90
2024/02/27 05:35:46;;;;;;;;;;;6.20;99.90;;;;;;5079731;28;19997;-90
2024/02/27 05:38:12;;;;;;;;;;;6.30;99.90;;;;;;5087061;28;19996;-89
2024/02/27 05:40:37;;;;;;;;;;;6.30;99.90;;;;;;5087010;28;19989;-88
2024/02/27 05:43:03;;;;;;;;;;;6.30;99.90;;;;;;5085236;28;19992;-90
2024/02/27 05:45:28;;;;;;;;;;;6.20;99.90;;;;;;5085920;28;20590;-87
2024/02/27 05:47:54;;;;;;;;;;;6.30;99.90;;;;;;5087462;28;19993;-88
2024/02/27 05:50:20;;;;;;;;;;;6.20;99.90;;;;;;5081555;28;20551;-87
2024/02/27 05:52:46;;;;;;;;;;;6.20;99.90;;;;;;5081909;28;19988;-87
2024/02/27 05:55:12;;;;;;;;;;;6.20;99.90;;;;;;5082047;28;20395;-92
2024/02/27 05:57:37;;;;;;;;;;;6.30;99.90;;;;;;5077248;28;20023;-91
2024/02/27 06:00:03;;;;;;;;;;;6.30;99.90;;;;;;5079736;28;20096;-90
2024/02/27 06:02:29;;;;;;;;;;;6.20;99.90;;;;;;5083338;28;20075;-92
2024/02/27 06:04:54;;;;;;;;;;;6.20;99.90;;;;;;5085587;28;19989;-92
2024/02/27 06:07:20;;;;;;;;;;;6.20;99.90;;;;;;5083566;28;20000;-87
2024/02/27 06:09:45;;;;;;;;;;;6.20;99.90;;;;;;5077488;28;20005;-89
2024/02/27 06:12:11;;;;;;;;;;;6.10;99.90;;;;;;5082961;28;20011;-86
2024/02/27 06:14:36;;;;;;;;;;;6.00;99.90;;;;;;5079179;28;19985;-86
2024/02/27 06:17:02;;;;;;;;;;;5.90;99.90;;;;;;5079819;28;20421;-88
2024/02/27 06:19:30;;;;;;;;;;;5.90;99.90;;;;;;5076778;28;20135;-88
2024/02/27 06:22:13;;;;;;;;;;;6.00;99.90;;;;;;5085563;28;20060;-91
2024/02/27 06:24:39;;;;;;;;;;;6.00;99.90;;;;;;5079672;28;19995;-89
2024/02/27 06:27:05;;;;;;;;;;;6.10;99.90;;;;;;5081318;28;20380;-93
2024/02/27 06:29:31;;;;;;;;;;;6.10;99.90;;;;;;5083422;28;20016;-90
2024/02/27 06:31:56;;;;;;;;;;;6.20;99.90;;;;;;5083513;28;20058;-91
2024/02/27 06:34:22;;;;;;;;;;;6.30;99.90;;;;;;5079042;28;19985;-89
2024/02/27 06:36:48;;;;;;;;;;;6.30;99.90;;;;;;5085652;28;20322;-89
2024/02/27 06:39:14;;;;;;;;;;;6.30;99.90;;;;;;5081411;28;20034;-89
2024/02/27 06:41:39;;;;;;;;;;;6.20;99.90;;;;;;5079638;28;19986;-90
2024/02/27 06:44:05;;;;;;;;;;;6.20;99.90;;;;;;5087187;28;19992;-91
2024/02/27 06:46:31;;;;;;;;;;;6.20;99.90;;;;;;5079472;28;19989;-91
2024/02/27 06:48:57;;;;;;;;;;;6.30;99.90;;;;;;5080493;28;19996;-88
2024/02/27 06:51:22;;;;;;;;;;;6.40;99.90;;;;;;5087248;28;20011;-91
2024/02/27 06:53:48;;;;;;;;;;;6.40;99.90;;;;;;5085537;28;19993;-90
2024/02/27 06:56:14;;;;;;;;;;;6.50;99.90;;;;;;5084437;28;19985;-91
2024/02/27 06:58:39;;;;;;;;;;;6.60;99.90;;;;;;5084970;28;20031;-89
2024/02/27 07:01:05;;;;;;;;;;;6.70;99.90;;;;;;5089038;28;20016;-87
2024/02/27 07:03:31;;;;;;;;;;;6.60;99.90;;;;;;5084297;28;20779;-86
2024/02/27 07:05:59;;;;;;;;;;;6.60;99.90;;;;;;5080211;28;20015;-86
2024/02/27 07:08:25;;;;;;;;;;;7.00;99.90;;;;;;5077205;28;20112;-88
2024/02/27 07:10:50;;;;;;;;;;;8.50;99.90;;;;;;5074127;28;20127;-89
2024/02/27 07:13:16;;;;;;;;;;;9.10;99.90;;;;;;5087552;28;20024;-86
2024/02/27 07:15:42;;;;;;;;;;;9.30;99.90;;;;;;5085407;28;20107;-85
2024/02/27 07:18:08;;;;;;;;;;;8.90;99.90;;;;;;5087542;28;20071;-91
2024/02/27 07:20:33;;;;;;;;;;;10.00;99.90;;;;;;5085404;28;20495;-87
2024/02/27 07:23:00;;;;;;;;;;;9.20;99.90;;;;;;5084811;28;20084;-87
2024/02/27 07:25:26;;;;;;;;;;;8.30;99.90;;;;;;5082708;28;19999;-84
2024/02/27 07:27:51;;;;;;;;;;;7.80;99.90;;;;;;5078380;28;20471;-88
2024/02/27 07:30:18;;;;;;;;;;;7.60;99.90;;;;;;5082776;28;20013;-87
2024/02/27 07:32:43;;;;;;;;;;;7.50;99.90;;;;;;5088483;28;19988;-88
2024/02/27 07:35:09;;;;;;;;;;;7.40;99.90;;;;;;5083549;28;20000;-87
2024/02/27 07:37:34;;;;;;;;;;;7.40;99.90;;;;;;5078871;28;20451;-87
2024/02/27 07:40:00;;;;;;;;;;;7.30;99.90;;;;;;5085911;28;20460;-87
2024/02/27 07:42:26;;;;;;;;;;;7.30;99.90;;;;;;5078404;28;19989;-86
2024/02/27 07:44:51;;;;;;;;;;;7.30;99.90;;;;;;5084991;28;19999;-87
2024/02/27 07:47:17;;;;;;;;;;;7.30;99.90;;;;;;5081880;28;20432;-86
2024/02/27 07:49:46;;;;;;;;;;;7.20;99.90;;;;;;5084534;28;20546;-87
2024/02/27 07:52:12;;;;;;;;;;;7.30;99.90;;;;;;5081448;28;19993;-88
2024/02/27 07:54:38;;;;;;;;;;;7.30;99.90;;;;;;5083645;28;19996;-89
2024/02/27 07:57:04;;;;;;;;;;;7.40;99.90;;;;;;5087756;28;20010;-88
2024/02/27 07:59:30;;;;;;;;;;;7.40;99.90;;;;;;5084588;28;19990;-88
2024/02/27 08:01:55;;;;;;;;;;;7.40;99.90;;;;;;5085157;28;19993;-86
2024/02/27 08:04:21;;;;;;;;;;;7.50;99.90;;;;;;5081696;28;20042;-86
2024/02/27 08:06:46;;;;;;;;;;;7.50;99.90;;;;;;5086382;28;20764;-93
2024/02/27 08:09:12;;;;;;;;;;;7.40;99.90;;;;;;5092008;28;20773;-88
2024/02/27 08:11:37;;;;;;;;;;;7.40;99.90;;;;;;5086635;28;20017;-90
2024/02/27 08:14:03;;;;;;;;;;;7.40;99.90;;;;;;5082733;28;20011;-88
2024/02/27 08:16:30;;;;;;;;;;;7.50;99.90;;;;;;5082783;28;19988;-86
2024/02/27 08:18:55;;;;;;;;;;;7.50;99.90;;;;;;5084178;28;19995;-90
2024/02/27 08:21:21;;;;;;;;;;;7.50;99.90;;;;;;5073531;28;19989;-89
2024/02/27 08:23:46;;;;;;;;;;;7.60;99.90;;;;;;5078228;28;20095;-93
2024/02/27 08:26:12;;;;;;;;;;;7.80;99.90;;;;;;5082998;28;19988;-87
2024/02/27 08:28:38;;;;;;;;;;;7.80;99.90;;;;;;5077331;28;20029;-85
2024/02/27 08:31:03;;;;;;;;;;;7.80;99.90;;;;;;5085721;28;20011;-87
2024/02/27 08:33:29;;;;;;;;;;;7.90;99.90;;;;;;5081437;28;19989;-86
2024/02/27 08:35:55;;;;;;;;;;;8.10;99.90;;;;;;5079848;28;20087;-85
2024/02/27 08:38:21;;;;;;;;;;;8.20;99.90;;;;;;5084990;28;19995;-87
2024/02/27 08:40:47;;;;;;;;;;;8.40;99.90;;;;;;5082762;28;20483;-87
2024/02/27 08:43:14;;;;;;;;;;;8.50;99.90;;;;;;5087623;28;20279;-87
2024/02/27 08:45:39;;;;;;;;;;;8.40;99.90;;;;;;5083359;28;19989;-85
2024/02/27 08:48:05;;;;;;;;;;;8.20;99.90;;;;;;5078230;28;20488;-86
2024/02/27 08:50:31;;;;;;;;;;;8.10;99.90;;;;;;5082739;28;20009;-86
2024/02/27 08:52:56;;;;;;;;;;;8.20;99.90;;;;;;5086080;28;20648;-86
2024/02/27 08:55:25;;;;;;;;;;;8.30;99.90;;;;;;5084804;28;19992;-86
2024/02/27 08:57:50;;;;;;;;;;;8.30;99.90;;;;;;5072236;28;20043;-86
2024/02/27 09:00:16;;;;;;;;;;;8.40;99.90;;;;;;5075555;28;19988;-85
2024/02/27 09:02:43;;;;;;;;;;;8.30;99.90;;;;;;5073653;28;19989;-86
2024/02/27 09:05:08;;;;;;;;;;;8.20;99.90;;;;;;5077883;28;19993;-86
2024/02/27 09:07:37;;;;;;;;;;;8.20;99.90;;;;;;5067620;28;20095;-93
2024/02/27 09:10:04;;;;;;;;;;;8.10;99.90;;;;;;5089386;28;20023;-94
2024/02/27 09:12:30;;;;;;;;;;;8.20;99.90;;;;;;5087674;28;20076;-96
2024/02/27 09:14:55;;;;;;;;;;;8.20;99.90;;;;;;5082965;28;20031;-90
2024/02/27 09:17:21;;;;;;;;;;;8.20;99.90;;;;;;5081803;28;20711;-90
2024/02/27 09:19:47;;;;;;;;;;;8.30;99.90;;;;;;5069234;28;19993;-91
2024/02/27 09:22:12;;;;;;;;;;;8.30;99.90;;;;;;5084764;28;19992;-94
2024/02/27 09:24:38;;;;;;;;;;;8.40;99.90;;;;;;5089648;28;20014;-94
2024/02/27 09:27:03;;;;;;;;;;;8.40;99.90;;;;;;5071940;28;20531;-88
2024/02/27 09:29:29;;;;;;;;;;;8.40;99.90;;;;;;5078420;28;19993;-85
2024/02/27 09:31:54;;;;;;;;;;;8.50;99.90;;;;;;5072231;28;20483;-89
2024/02/27 09:34:20;;;;;;;;;;;8.70;99.90;;;;;;5085249;28;20810;-93
2024/02/27 09:36:46;;;;;;;;;;;9.00;99.90;;;;;;5078009;28;20133;-92
2024/02/27 09:39:11;;;;;;;;;;;9.20;99.90;;;;;;5079733;28;19989;-87
2024/02/27 09:42:03;;;;;;;;;;;9.80;99.90;;;;;;5070951;28;20070;-93
2024/02/27 09:44:29;;;;;;;;;;;10.30;99.90;;;;;;5072281;28;19989;-89
2024/02/27 09:46:56;;;;;;;;;;;9.90;99.90;;;;;;5070246;28;20004;-89
2024/02/27 09:49:22;;;;;;;;;;;9.80;99.90;;;;;;5074797;28;20384;-88
2024/02/27 09:51:49;;;;;;;;;;;10.30;99.90;;;;;;5075034;28;20019;-90
2024/02/27 09:54:15;;;;;;;;;;;10.10;99.90;;;;;;5079675;28;19997;-91
2024/02/27 09:56:41;;;;;;;;;;;9.90;99.90;;;;;;5081734;28;19989;-86
2024/02/27 09:59:06;;;;;;;;;;;9.90;99.90;;;;;;5067331;28;20025;-88
2024/02/27 10:01:35;;;;;;;;;;;10.00;99.90;;;;;;5075342;28;19999;-88
2024/02/27 10:04:01;;;;;;;;;;;10.20;99.90;;;;;;5075180;28;20028;-89
2024/02/27 10:06:32;;;;;;;;;;;10.20;99.90;;;;;;5081515;28;20014;-88
2024/02/27 10:09:00;;;;;;;;;;;10.50;99.90;;;;;;5077151;28;19989;-89
2024/02/27 10:11:26;;;;;;;;;;;10.50;99.90;;;;;;5071251;28;20009;-89
2024/02/27 10:13:52;;;;;;;;;;;10.30;99.90;;;;;;5075258;28;20040;-90
2024/02/27 10:16:21;;;;;;;;;;;10.10;99.90;;;;;;5076224;28;20385;-93
2024/02/27 10:18:47;;;;;;;;;;;10.20;99.90;;;;;;5070692;28;20051;-88
2024/02/27 10:21:13;;;;;;;;;;;10.30;99.90;;;;;;5076499;28;19989;-88
2024/02/27 10:23:38;;;;;;;;;;;10.20;99.90;;;;;;5074940;28;19989;-90
2024/02/27 10:26:06;;;;;;;;;;;10.20;99.90;;;;;;5083063;28;21017;-89
2024/02/27 10:28:33;;;;;;;;;;;10.30;99.90;;;;;;5079006;28;19989;-89
2024/02/27 10:30:58;;;;;;;;;;;10.60;99.90;;;;;;5073478;28;20012;-90
2024/02/27 10:33:24;;;;;;;;;;;11.10;99.60;;;;;;5074893;28;20057;-88
2024/02/27 10:35:52;;;;;;;;;;;11.60;98.10;;;;;;5075622;28;20346;-91
2024/02/27 10:38:21;;;;;;;;;;;12.10;97.40;;;;;;5086041;28;20011;-91
2024/02/27 10:40:47;;;;;;;;;;;12.30;96.20;;;;;;5082391;28;19993;-90
2024/02/27 10:43:13;;;;;;;;;;;11.80;95.40;;;;;;5087577;28;19993;-89
2024/02/27 10:45:40;;;;;;;;;;;11.70;95.20;;;;;;5078980;28;20000;-89
2024/02/27 10:48:05;;;;;;;;;;;11.60;95.80;;;;;;5078032;28;20572;-87
2024/02/27 10:50:32;;;;;;;;;;;11.60;95.00;;;;;;5084484;28;20111;-90
2024/02/27 10:52:59;;;;;;;;;;;11.80;95.40;;;;;;5087720;28;20644;-89
2024/02/27 10:55:24;;;;;;;;;;;11.60;95.20;;;;;;5075883;28;20058;-88
2024/02/27 10:57:50;;;;;;;;;;;11.40;95.90;;;;;;5080339;28;20064;-91
2024/02/27 11:00:16;;;;;;;;;;;11.30;96.00;;;;;;5078176;28;20379;-90
2024/02/27 11:02:45;;;;;;;;;;;11.20;96.20;;;;;;5075922;28;20015;-92
2024/02/27 11:05:11;;;;;;;;;;;11.20;95.90;;;;;;5078546;28;20001;-90
2024/02/27 11:07:36;;;;;;;;;;;10.90;95.00;;;;;;5073985;28;19994;-89
2024/02/27 11:10:03;;;;;;;;;;;11.30;95.90;;;;;;5084719;28;20008;-90
2024/02/27 11:12:29;;;;;;;;;;;11.10;94.40;;;;;;5090665;28;20036;-90
2024/02/27 11:15:01;;;;;;;;;;;11.30;95.20;;;;;;5081290;28;20087;-90
2024/02/27 11:17:28;;;;;;;;;;;11.50;94.20;;;;;;5089216;28;20661;-90
2024/02/27 11:19:54;;;;;;;;;;;11.60;94.30;;;;;;5081788;28;20096;-90
2024/02/27 11:22:21;;;;;;;;;;;11.20;92.80;;;;;;5086415;28;20466;-91
2024/02/27 11:24:47;;;;;;;;;;;11.20;94.30;;;;;;5082906;28;20107;-91
2024/02/27 11:27:14;;;;;;;;;;;11.30;94.20;;;;;;5091377;28;19996;-91
2024/02/27 11:29:41;;;;;;;;;;;11.20;94.10;;;;;;5088018;28;19985;-90
2024/02/27 11:32:08;;;;;;;;;;;10.90;94.80;;;;;;5085829;28;20019;-90
2024/02/27 11:34:36;;;;;;;;;;;10.80;94.90;;;;;;5093360;28;20032;-90
2024/02/27 11:37:11;;;;;;;;;;;10.80;94.80;;;;;;5082185;28;20692;-87
2024/02/27 11:39:36;;;;;;;;;;;10.70;94.50;;;;;;5081881;28;19999;-90
2024/02/27 11:42:04;;;;;;;;;;;10.90;94.60;;;;;;5090496;28;20091;-90
2024/02/27 11:44:29;;;;;;;;;;;10.90;94.20;;;;;;5082792;28;19999;-93
2024/02/27 11:46:55;;;;;;;;;;;10.70;92.80;;;;;;5085905;28;19993;-91
2024/02/27 11:49:36;;;;;;;;;;;10.80;93.90;;;;;;5085663;28;19999;-91
2024/02/27 11:52:01;;;;;;;;;;;11.00;93.60;;;;;;5078667;28;20090;-92
2024/02/27 11:54:34;;;;;;;;;;;10.50;93.50;;;;;;5093618;28;20075;-89
2024/02/27 11:57:00;;;;;;;;;;;10.50;94.10;;;;;;5077053;28;20001;-92
2024/02/27 11:59:32;;;;;;;;;;;10.50;94.30;;;;;;5085562;28;20021;-92
2024/02/27 12:02:03;;;;;;;;;;;10.40;93.90;;;;;;5088752;28;20000;-92
2024/02/27 12:04:29;;;;;;;;;;;10.50;94.20;;;;;;5082015;28;19993;-90
2024/02/27 12:06:55;;;;;;;;;;;10.30;93.60;;;;;;5079016;28;19993;-90
2024/02/27 12:09:21;;;;;;;;;;;10.40;94.10;;;;;;5085860;28;20492;-87
2024/02/27 12:11:47;;;;;;;;;;;10.30;93.60;;;;;;5072268;28;20063;-93
2024/02/27 12:14:12;;;;;;;;;;;10.40;93.60;;;;;;5079338;28;20476;-88
2024/02/27 12:16:41;;;;;;;;;;;10.80;93.20;;;;;;5074220;28;20038;-93
2024/02/27 12:19:07;;;;;;;;;;;10.60;92.80;;;;;;5079944;28;20039;-87
2024/02/27 12:21:33;;;;;;;;;;;10.40;93.60;;;;;;5087533;28;19996;-87
2024/02/27 12:24:09;;;;;;;;;;;10.10;94.10;;;;;;5077084;28;19993;-89
2024/02/27 12:26:34;;;;;;;;;;;10.00;94.20;;;;;;5087172;28;19997;-87
2024/02/27 12:29:00;;;;;;;;;;;10.00;94.50;;;;;;5079080;28;20112;-89
2024/02/27 12:31:26;;;;;;;;;;;9.60;94.60;;;;;;5078904;28;20077;-89
2024/02/27 12:33:52;;;;;;;;;;;9.70;94.90;;;;;;5080520;28;20000;-87
2024/02/27 12:36:20;;;;;;;;;;;9.60;95.00;;;;;;5079854;28;19993;-92
2024/02/27 12:38:50;;;;;;;;;;;9.40;94.50;;;;;;5085875;28;19992;-85
2024/02/27 12:41:15;;;;;;;;;;;9.40;94.10;;;;;;5087556;28;19993;-88
2024/02/27 12:43:41;;;;;;;;;;;9.50;94.60;;;;;;5086681;28;20535;-89
2024/02/27 12:46:07;;;;;;;;;;;9.60;94.30;;;;;;5084743;28;20046;-88
2024/02/27 12:48:32;;;;;;;;;;;9.90;94.00;;;;;;5080167;28;19989;-88
2024/02/27 12:51:00;;;;;;;;;;;10.10;93.60;;;;;;5081148;28;20028;-87
2024/02/27 12:53:26;;;;;;;;;;;10.60;92.80;;;;;;5084523;28;20035;-85
2024/02/27 12:55:51;;;;;;;;;;;10.80;91.20;;;;;;5089481;28;20050;-93
2024/02/27 12:58:24;;;;;;;;;;;11.00;91.70;;;;;;5088400;28;20021;-91
2024/02/27 13:00:49;;;;;;;;;;;10.50;91.00;;;;;;5083037;28;19997;-89
2024/02/27 13:03:15;;;;;;;;;;;10.10;91.20;;;;;;5083527;28;20015;-88
2024/02/27 13:05:42;;;;;;;;;;;10.20;91.80;;;;;;5084928;28;20043;-88
2024/02/27 13:08:09;;;;;;;;;;;10.10;91.90;;;;;;5080586;28;19989;-90
2024/02/27 13:10:34;;;;;;;;;;;10.40;91.30;;;;;;5078385;28;20005;-91
2024/02/27 13:13:15;;;;;;;;;;;10.60;91.10;;;;;;5087872;28;20503;-90
2024/02/27 13:15:41;;;;;;;;;;;10.70;91.00;;;;;;5080979;28;19995;-90
2024/02/27 13:18:07;;;;;;;;;;;11.10;90.70;;;;;;5091866;28;20694;-90
2024/02/27 13:20:33;;;;;;;;;;;11.00;89.00;;;;;;5088298;28;20082;-94
2024/02/27 13:22:59;;;;;;;;;;;10.50;90.40;;;;;;5083448;28;19993;-94
2024/02/27 13:25:25;;;;;;;;;;;10.40;91.20;;;;;;5079946;28;19989;-92
2024/02/27 13:27:50;;;;;;;;;;;10.40;91.70;;;;;;5081647;28;20046;-93
2024/02/27 13:30:16;;;;;;;;;;;10.20;92.10;;;;;;5084315;28;20013;-91
2024/02/27 13:32:41;;;;;;;;;;;9.90;92.50;;;;;;5077038;28;20576;-90
2024/02/27 13:35:07;;;;;;;;;;;9.90;92.90;;;;;;5079991;28;20415;-90
2024/02/27 13:37:32;;;;;;;;;;;9.80;92.80;;;;;;5083826;28;20071;-91
2024/02/27 13:39:58;;;;;;;;;;;9.90;92.90;;;;;;5077388;28;20515;-91
2024/02/27 13:42:24;;;;;;;;;;;9.60;92.40;;;;;;5080816;28;20040;-90
2024/02/27 13:44:50;;;;;;;;;;;9.50;92.30;;;;;;5077451;28;20091;-92
2024/02/27 13:47:15;;;;;;;;;;;9.40;92.80;;;;;;5076040;28;20084;-91
2024/02/27 13:49:41;;;;;;;;;;;9.30;91.50;;;;;;5084531;28;20574;-90
2024/02/27 13:52:08;;;;;;;;;;;9.30;92.60;;;;;;5081967;28;20108;-95
2024/02/27 13:54:33;;;;;;;;;;;9.10;91.50;;;;;;5076800;28;19993;-87
2024/02/27 13:56:59;;;;;;;;;;;9.20;92.30;;;;;;5075639;28;19997;-95
2024/02/27 13:59:25;;;;;;;;;;;9.20;91.80;;;;;;5090043;28;20526;-94
2024/02/27 14:01:52;;;;;;;;;;;9.20;91.80;;;;;;5085173;28;19989;-95
2024/02/27 14:04:18;;;;;;;;;;;9.20;92.50;;;;;;5093182;28;20468;-95
2024/02/27 14:06:43;;;;;;;;;;;9.20;92.60;;;;;;5092758;28;19999;-95
2024/02/27 14:09:09;;;;;;;;;;;9.10;92.40;;;;;;5094833;28;20020;-95
2024/02/27 14:11:35;;;;;;;;;;;9.10;92.80;;;;;;5084696;28;20021;-94
2024/02/27 14:14:00;;;;;;;;;;;9.10;92.30;;;;;;5079457;28;20040;-94
2024/02/27 14:16:31;;;;;;;;;;;9.20;92.10;;;;;;5094334;28;19993;-95
2024/02/27 14:18:57;;;;;;;;;;;9.30;92.40;;;;;;5080945;28;19993;-94